createdAt,value
2023-01-05T00:09:24.605Z,8.70
2023-01-05T00:15:02.642Z,8.70
2023-01-05T00:20:37.128Z,8.60
2023-01-05T00:25:38.987Z,8.60
2023-01-05T00:30:42.909Z,8.60
2023-01-05T00:45:41.470Z,9.00
2023-01-05T01:03:16.431Z,9.20
2023-01-05T01:20:44.066Z,8.90
2023-01-05T01:38:12.539Z,9.80
2023-01-05T01:40:43.703Z,9.90
2023-01-05T01:43:16.829Z,9.90
2023-01-05T01:48:19.147Z,10.20
2023-01-05T01:50:52.637Z,10.20
2023-01-05T01:53:29.150Z,10.40
2023-01-05T01:56:02.231Z,10.30
2023-01-05T01:58:34.140Z,10.40
2023-01-05T02:03:34.017Z,10.50
2023-01-05T02:11:19.775Z,10.70
2023-01-05T02:14:05.683Z,10.30
2023-01-05T02:16:45.656Z,9.60
2023-01-05T02:20:00.724Z,9.50
2023-01-05T02:23:01.186Z,9.50
2023-01-05T02:26:08.372Z,10.00
2023-01-05T02:28:51.958Z,9.30
2023-01-05T02:31:26.587Z,9.30
2023-01-05T02:34:07.780Z,9.30
2023-01-05T02:36:41.713Z,9.30
2023-01-05T02:39:15.408Z,9.40
2023-01-05T02:41:54.358Z,9.40
2023-01-05T02:47:05.922Z,9.50
2023-01-05T02:49:39.896Z,9.60
2023-01-05T02:52:11.866Z,9.60
2023-01-05T02:54:47.115Z,9.50
2023-01-05T02:57:21.577Z,9.40
2023-01-05T02:59:53.711Z,9.60
2023-01-05T03:02:32.656Z,9.60
2023-01-05T03:05:07.352Z,9.50
2023-01-05T03:07:40.828Z,9.50
2023-01-05T03:10:41.421Z,9.40
2023-01-05T03:13:29.873Z,9.40
2023-01-05T03:16:02.688Z,9.30
2023-01-05T03:18:55.464Z,9.20
2023-01-05T03:21:27.931Z,9.10
2023-01-05T03:24:17.236Z,9.00
2023-01-05T03:32:42.398Z,8.80
2023-01-05T03:35:32.245Z,8.70
2023-01-05T03:38:08.151Z,8.70
2023-01-05T03:40:41.433Z,9.20
2023-01-05T03:45:45.313Z,8.60
2023-01-05T03:50:53.403Z,8.60
2023-01-05T04:06:05.894Z,8.20
2023-01-05T04:11:13.789Z,7.90
2023-01-05T04:16:14.354Z,7.60
2023-01-05T04:21:15.690Z,7.80
2023-01-05T04:36:26.468Z,7.60
2023-01-05T04:51:29.429Z,7.90
2023-01-05T04:58:57.605Z,8.00
2023-01-05T05:09:02.984Z,8.10
2023-01-05T05:39:01.329Z,7.90
2023-01-05T05:46:32.528Z,7.90
2023-01-05T05:54:02.671Z,8.00
2023-01-05T05:56:34.135Z,8.00
2023-01-05T06:01:32.984Z,11.80
2023-01-05T06:09:02.953Z,8.00
2023-01-05T06:39:04.595Z,7.90
2023-01-05T06:54:05.131Z,8.40
2023-01-05T07:01:33.670Z,8.60
2023-01-05T07:29:00.499Z,8.90
2023-01-05T07:43:59.575Z,8.90
2023-01-05T07:53:58.204Z,9.10
2023-01-05T08:01:28.409Z,9.40
2023-01-05T08:11:48.639Z,9.60
2023-01-05T08:16:49.266Z,9.50
2023-01-05T08:59:21.171Z,10.30
2023-01-05T09:19:38.926Z,10.10
2023-01-05T09:32:08.033Z,9.90
2023-01-05T09:34:39.357Z,8.80
2023-01-05T09:42:15.903Z,9.60
2023-01-05T09:44:47.700Z,9.40
2023-01-05T09:47:21.397Z,10.10
2023-01-05T09:49:52.615Z,9.10
2023-01-05T09:52:24.296Z,9.00
2023-01-05T09:57:27.208Z,8.90
2023-01-05T09:59:59.390Z,9.00
2023-01-05T10:02:34.533Z,9.10
2023-01-05T10:05:08.059Z,9.30
2023-01-05T10:07:43.804Z,9.50
2023-01-05T10:10:30.591Z,10.00
2023-01-05T10:13:05.703Z,10.40
2023-01-05T10:15:44.279Z,10.20
2023-01-05T10:18:16.249Z,9.90
2023-01-05T10:21:07.637Z,9.50
2023-01-05T10:24:08.575Z,9.30
2023-01-05T10:27:23.030Z,9.30
2023-01-05T10:29:42.723Z,9.30
2023-01-05T10:32:27.244Z,9.20
2023-01-05T10:35:01.160Z,9.30
2023-01-05T10:38:02.319Z,9.30
2023-01-05T10:40:42.472Z,9.30
2023-01-05T10:43:25.768Z,9.20
2023-01-05T10:55:31.716Z,6.70
2023-01-05T11:00:43.972Z,6.80
2023-01-05T11:03:18.763Z,6.80
2023-01-05T11:05:50.235Z,6.90
2023-01-05T11:08:21.887Z,6.90
2023-01-05T11:10:54.747Z,8.00
2023-01-05T11:13:31.637Z,6.90
2023-01-05T11:16:07.653Z,6.90
2023-01-05T11:18:40.947Z,7.00
2023-01-05T11:21:16.467Z,6.90
2023-01-05T11:23:47.850Z,7.00
2023-01-05T11:26:31.266Z,6.90
2023-01-05T11:29:19.027Z,6.90
2023-01-05T11:31:57.394Z,6.90
2023-01-05T11:34:35.966Z,6.80
2023-01-05T11:37:08.853Z,6.80
2023-01-05T11:39:43.783Z,6.80
2023-01-05T11:42:25.294Z,6.90
2023-01-05T11:44:57.723Z,7.00
2023-01-05T11:47:31.447Z,7.00
2023-01-05T11:50:08.678Z,7.10
2023-01-05T11:55:31.710Z,7.50
2023-01-05T11:58:26.414Z,7.90
2023-01-05T12:04:04.242Z,7.70
2023-01-05T12:07:00.946Z,7.80
2023-01-05T12:09:35.432Z,8.60
2023-01-05T12:12:26.608Z,11.90
2023-01-05T12:15:16.482Z,12.00
2023-01-05T12:20:43.434Z,13.70
2023-01-05T12:23:36.581Z,15.40
2023-01-05T12:26:16.900Z,13.00
2023-01-05T12:30:22.482Z,11.50
2023-01-05T12:35:43.698Z,9.40
2023-01-05T12:38:31.245Z,9.20
2023-01-05T12:41:27.681Z,11.00
2023-01-05T12:44:11.286Z,13.60
2023-01-05T12:46:53.582Z,15.10
2023-01-05T12:49:29.590Z,14.40
2023-01-05T12:52:09.129Z,12.50
2023-01-05T12:54:46.629Z,11.00
2023-01-05T12:57:19.768Z,10.10
2023-01-05T12:59:54.965Z,9.70
2023-01-05T13:02:34.891Z,9.50
2023-01-05T13:05:14.359Z,9.20
2023-01-05T13:07:48.777Z,9.20
2023-01-05T13:10:23.385Z,9.20
2023-01-05T13:13:00.626Z,9.30
2023-01-05T13:15:40.366Z,9.30
2023-01-05T13:18:16.334Z,9.30
2023-01-05T13:20:53.204Z,9.90
2023-01-05T13:23:26.119Z,10.90
2023-01-05T13:26:00.789Z,15.00
2023-01-05T13:28:32.028Z,12.10
2023-01-05T13:31:47.889Z,12.20
2023-01-05T13:34:41.337Z,12.60
2023-01-05T13:37:35.256Z,11.90
2023-01-05T13:40:40.653Z,10.80
2023-01-05T13:43:32.719Z,10.40
2023-01-05T13:46:31.100Z,10.60
2023-01-05T13:49:33.919Z,10.20
2023-01-05T13:52:04.355Z,10.00
2023-01-05T13:55:00.015Z,9.90
2023-01-05T13:57:43.107Z,9.70
2023-01-05T14:00:24.840Z,9.70
2023-01-05T14:03:07.758Z,9.70
2023-01-05T14:05:48.426Z,9.60
2023-01-05T14:08:24.696Z,9.60
2023-01-05T14:11:16.059Z,9.50
2023-01-05T14:13:51.533Z,9.30
2023-01-05T14:16:56.038Z,9.20
2023-01-05T14:19:28.347Z,9.10
2023-01-05T14:24:37.243Z,9.00
2023-01-05T14:27:11.101Z,9.00
2023-01-05T14:30:28.376Z,9.00
2023-01-05T14:35:37.322Z,9.00
2023-01-05T14:38:15.504Z,8.90
2023-01-05T14:40:46.963Z,9.00
2023-01-05T14:43:31.230Z,9.00
2023-01-05T14:46:10.206Z,8.90
2023-01-05T14:51:30.147Z,8.90
2023-01-05T14:54:04.694Z,8.80
2023-01-05T14:56:36.928Z,8.80
2023-01-05T14:59:21.994Z,8.70
2023-01-05T15:01:55.092Z,8.70
2023-01-05T15:04:30.439Z,8.60
2023-01-05T15:07:26.283Z,8.60
2023-01-05T15:10:14.840Z,8.70
2023-01-05T15:13:08.249Z,8.70
2023-01-05T15:15:49.694Z,8.80
2023-01-05T15:18:47.794Z,8.60
2023-01-05T15:21:42.900Z,8.50
2023-01-05T15:24:43.960Z,8.40
2023-01-05T15:27:39.851Z,8.40
2023-01-05T15:30:26.061Z,8.40
2023-01-05T15:33:06.874Z,8.40
2023-01-05T15:35:42.119Z,8.40
2023-01-05T15:41:04.244Z,8.30
2023-01-05T15:43:34.977Z,8.30
2023-01-05T15:48:39.917Z,8.20
2023-01-05T15:56:29.918Z,8.30
2023-01-05T15:59:00.308Z,8.30
2023-01-05T16:01:30.972Z,8.40
2023-01-05T16:04:11.336Z,8.40
2023-01-05T16:06:41.539Z,8.40
2023-01-05T16:09:13.158Z,8.30
2023-01-05T16:11:46.148Z,8.40
2023-01-05T16:14:20.516Z,8.80
2023-01-05T16:16:54.747Z,8.30
2023-01-05T16:19:31.501Z,8.30
2023-01-05T16:22:06.678Z,8.20
2023-01-05T16:24:57.754Z,8.30
2023-01-05T16:32:36.601Z,8.30
2023-01-05T16:35:44.978Z,8.20
2023-01-05T16:38:24.604Z,8.20
2023-01-05T16:41:17.227Z,8.20
2023-01-05T16:43:51.812Z,8.20
2023-01-05T16:46:40.425Z,8.10
2023-01-05T16:49:34.067Z,8.10
2023-01-05T16:52:07.913Z,8.10
2023-01-05T16:54:40.020Z,8.00
2023-01-05T16:57:36.408Z,7.90
2023-01-05T17:00:28.322Z,7.80
2023-01-05T17:02:59.512Z,7.60
2023-01-05T17:05:30.695Z,7.50
2023-01-05T17:08:06.626Z,7.40
2023-01-05T17:13:07.849Z,7.50
2023-01-05T17:15:38.567Z,7.50
2023-01-05T17:18:16.952Z,7.60
2023-01-05T17:20:48.450Z,7.60
2023-01-05T17:23:23.778Z,7.70
2023-01-05T17:25:54.127Z,7.80
2023-01-05T17:35:54.276Z,7.80
2023-01-05T17:45:54.981Z,7.60
2023-01-05T17:53:25.595Z,7.50
2023-01-05T18:08:26.717Z,7.00
2023-01-05T18:21:09.978Z,6.30
2023-01-05T18:23:41.066Z,6.40
2023-01-05T18:26:11.897Z,6.50
2023-01-05T18:28:41.294Z,6.50
2023-01-05T18:31:14.541Z,6.40
2023-01-05T18:36:15.428Z,6.30
2023-01-05T18:38:46.571Z,6.40
2023-01-05T18:56:15.602Z,6.50
2023-01-05T18:58:45.638Z,6.40
2023-01-05T19:01:17.236Z,6.20
2023-01-05T19:06:17.508Z,6.10
2023-01-05T19:08:49.546Z,6.10
2023-01-05T19:11:22.038Z,6.00
2023-01-05T19:13:51.888Z,6.00
2023-01-05T19:16:24.719Z,6.80
2023-01-05T19:18:58.434Z,6.00
2023-01-05T19:24:01.039Z,5.90
2023-01-05T19:26:34.548Z,5.80
2023-01-05T19:29:06.709Z,5.60
2023-01-05T19:34:06.404Z,5.30
2023-01-05T19:39:09.548Z,6.80
2023-01-05T19:41:45.706Z,5.20
2023-01-05T19:44:16.793Z,5.20
2023-01-05T19:46:49.443Z,5.00
2023-01-05T19:49:23.431Z,5.10
2023-01-05T19:56:57.240Z,4.50
2023-01-05T19:59:33.993Z,3.90
2023-01-05T20:12:14.462Z,5.30
2023-01-05T20:17:14.598Z,5.40
2023-01-05T20:22:15.287Z,5.50
2023-01-05T20:24:45.315Z,5.50
2023-01-05T20:27:18.996Z,5.50
2023-01-05T20:29:48.462Z,4.90
2023-01-05T20:32:20.210Z,5.40
2023-01-05T20:34:55.350Z,5.40
2023-01-05T20:42:25.570Z,5.50
2023-01-05T20:54:56.398Z,5.40
2023-01-05T20:57:27.816Z,5.50
2023-01-05T21:32:24.267Z,5.30
2023-01-05T21:45:13.890Z,5.90
2023-01-05T21:47:44.429Z,5.10
2023-01-05T21:50:36.053Z,5.10
2023-01-05T22:03:41.729Z,4.50
2023-01-05T22:13:40.720Z,4.30
2023-01-05T22:16:10.358Z,4.20
2023-01-05T22:18:41.204Z,4.10
2023-01-05T22:21:11.550Z,4.10
2023-01-05T22:26:11.336Z,4.20
2023-01-05T22:28:43.201Z,4.10
2023-01-05T22:31:14.857Z,4.00
2023-01-05T22:33:46.914Z,3.90
2023-01-05T22:36:17.612Z,4.00
2023-01-05T22:46:19.811Z,4.30
2023-01-05T22:48:52.232Z,4.40
2023-01-05T22:51:23.410Z,4.40
2023-01-05T22:56:24.464Z,4.40
2023-01-05T23:01:26.128Z,4.40
2023-01-05T23:03:59.401Z,4.40
2023-01-05T23:06:29.522Z,4.40
2023-01-05T23:08:59.005Z,4.40
2023-01-05T23:11:31.459Z,4.40
2023-01-05T23:14:02.709Z,4.40
2023-01-05T23:19:05.701Z,4.30
2023-01-05T23:24:06.504Z,4.20
2023-01-05T23:26:35.583Z,4.10
2023-01-05T23:34:04.628Z,4.40
2023-01-05T23:39:03.399Z,4.30
2023-01-05T23:56:31.440Z,4.30
2023-01-05T23:59:05.180Z,4.30
